Time;durP1;ratioP1;P1;durP2;ratioP2;P2;SDS_P1;SDS_P2;PMS_P1;PMS_P2;Temp;Humidity;BMP_temperature;BMP_pressure;BME280_temperature;BME280_humidity;BME280_pressure;Samples;Min_cycle;Max_cycle;Signal;HPM_P1;HPM_P2
2023/10/02 00:00:18;;;;;;;12.57;6.20;;;;;;;14.19;100.00;101287.34;692777;28;1055;-64
2023/10/02 00:01:06;;;;;;;12.02;6.20;;;;;;;14.29;100.00;101284.63;692609;28;892;-62
2023/10/02 00:01:24;;;;;;;11.95;5.97;;;;;;;14.22;100.00;101285.56;691537;28;4336;-60
2023/10/02 00:01:48;;;;;;;11.80;6.27;;;;;;;14.20;100.00;101286.47;693375;28;919;-61
2023/10/02 00:02:09;;;;;;;11.68;6.30;;;;;;;14.15;100.00;101283.91;693105;28;873;-61
2023/10/02 00:02:47;;;;;;;12.20;6.40;;;;;;;14.13;100.00;101280.41;691085;28;2616;-61
2023/10/02 00:03:09;;;;;;;12.27;6.10;;;;;;;14.10;100.00;101288.31;692672;28;1102;-61
2023/10/02 00:03:34;;;;;;;12.18;6.18;;;;;;;14.05;100.00;101283.13;691561;28;1817;-62
2023/10/02 00:04:35;;;;;;;11.63;6.80;;;;;;;14.06;100.00;101278.72;679625;28;4706;-62
2023/10/02 00:04:41;;;;;;;11.25;6.10;;;;;;;14.06;100.00;101279.56;693416;28;979;-61
2023/10/02 00:04:58;;;;;;;12.02;6.57;;;;;;;14.04;100.00;101281.38;688068;28;1645;-61
2023/10/02 00:05:40;;;;;;;11.10;6.18;;;;;;;14.03;100.00;101277.00;687136;28;1878;-61
2023/10/02 00:06:02;;;;;;;12.02;6.03;;;;;;;14.03;100.00;101284.00;688605;28;1653;-62
2023/10/02 00:06:23;;;;;;;11.65;6.07;;;;;;;14.04;100.00;101280.47;687527;28;1828;-60
2023/10/02 00:06:46;;;;;;;12.88;6.90;;;;;;;14.02;100.00;101277.00;689424;28;794;-61
2023/10/02 00:07:14;;;;;;;13.20;6.50;;;;;;;14.01;100.00;101277.88;689926;28;4524;-61
2023/10/02 00:07:36;;;;;;;11.85;6.13;;;;;;;13.98;100.00;101288.44;692271;28;952;-61
2023/10/02 00:07:58;;;;;;;13.30;6.45;;;;;;;13.99;100.00;101284.94;693286;28;1393;-61
2023/10/02 00:08:31;;;;;;;12.80;6.67;;;;;;;13.98;100.00;101285.81;691255;28;2361;-62
2023/10/02 00:08:53;;;;;;;12.18;6.20;;;;;;;13.99;100.00;101287.56;693103;28;1341;-60
2023/10/02 00:09:14;;;;;;;10.57;6.38;;;;;;;13.99;100.00;101285.78;693036;28;789;-62
2023/10/02 00:09:35;;;;;;;11.35;6.13;;;;;;;14.01;100.00;101283.13;689839;28;960;-61
2023/10/02 00:09:56;;;;;;;11.85;6.32;;;;;;;14.00;100.00;101286.66;690802;28;1087;-64
2023/10/02 00:10:17;;;;;;;11.07;6.00;;;;;;;13.99;100.00;101291.03;688286;28;4372;-61
2023/10/02 00:10:40;;;;;;;10.63;6.03;;;;;;;13.96;100.00;101286.69;690110;28;963;-62
2023/10/02 00:11:56;;;;;;;11.93;6.43;;;;;;;14.09;100.00;101283.94;693205;28;1023;-61
2023/10/02 00:12:19;;;;;;;11.52;6.40;;;;;;;14.06;100.00;101283.97;691908;28;2247;-60
2023/10/02 00:12:40;;;;;;;13.38;6.40;;;;;;;14.06;100.00;101289.22;692722;28;1075;-61
2023/10/02 00:13:01;;;;;;;11.73;6.00;;;;;;;14.05;100.00;101283.13;693429;28;876;-61
2023/10/02 00:13:22;;;;;;;12.02;6.00;;;;;;;14.02;100.00;101287.53;691146;28;4413;-61
2023/10/02 00:13:43;;;;;;;12.85;6.53;;;;;;;14.00;100.00;101289.28;693070;28;1918;-62
2023/10/02 00:14:19;;;;;;;11.53;6.47;;;;;;;13.98;100.00;101284.03;693420;28;995;-62
2023/10/02 00:14:41;;;;;;;12.48;6.15;;;;;;;13.96;100.00;101284.06;693381;28;1700;-62
2023/10/02 00:15:12;;;;;;;12.35;5.82;;;;;;;13.94;100.00;101285.84;690139;28;916;-63
2023/10/02 00:15:32;;;;;;;11.65;6.28;;;;;;;13.96;100.00;101288.44;688897;28;2322;-61
2023/10/02 00:15:53;;;;;;;11.40;6.40;;;;;;;13.96;100.00;101291.06;689907;28;1082;-61
2023/10/02 00:16:18;;;;;;;11.23;6.22;;;;;;;13.96;100.00;101289.31;687324;28;4727;-61
2023/10/02 00:16:39;;;;;;;13.13;6.68;;;;;;;13.95;100.00;101287.56;687827;28;1039;-61
2023/10/02 00:17:00;;;;;;;13.27;6.43;;;;;;;13.96;100.00;101281.41;689218;28;937;-61
2023/10/02 00:17:22;;;;;;;14.00;6.10;;;;;;;14.00;100.00;101284.00;686026;28;1049;-61
2023/10/02 00:17:48;;;;;;;13.23;6.40;;;;;;;14.01;100.00;101280.50;685710;28;1017;-61
2023/10/02 00:18:08;;;;;;;12.70;6.57;;;;;;;13.99;100.00;101287.56;687433;28;984;-61
2023/10/02 00:18:29;;;;;;;12.37;6.17;;;;;;;13.98;100.00;101278.78;689246;28;1825;-61
2023/10/02 00:18:51;;;;;;;12.02;5.90;;;;;;;13.98;100.00;101291.06;689030;28;1101;-63
2023/10/02 00:19:23;;;;;;;10.67;5.77;;;;;;;13.97;100.00;101284.94;687160;28;4439;-61
2023/10/02 00:19:49;;;;;;;12.55;6.40;;;;;;;13.93;100.00;101284.09;686613;28;5726;-60
2023/10/02 00:20:21;;;;;;;12.38;6.05;;;;;;;13.93;100.00;101286.72;685965;28;976;-62
2023/10/02 00:20:41;;;;;;;13.70;6.60;;;;;;;13.94;100.00;101282.31;692563;28;972;-60
2023/10/02 00:21:17;;;;;;;12.13;6.13;;;;;;;13.94;100.00;101288.47;692796;28;1356;-61
2023/10/02 00:21:37;;;;;;;12.52;6.28;;;;;;;13.92;100.00;101292.84;692693;28;1233;-63
2023/10/02 00:22:05;;;;;;;12.27;6.27;;;;;;;13.91;100.00;101291.09;693182;28;948;-61
2023/10/02 00:22:36;;;;;;;12.05;6.50;;;;;;;13.92;100.00;101289.34;690931;28;4517;-61
2023/10/02 00:22:56;;;;;;;12.65;6.22;;;;;;;13.90;100.00;101288.47;693165;28;1015;-61
2023/10/02 00:23:18;;;;;;;12.90;6.63;;;;;;;13.90;100.00;101286.75;691563;28;2513;-61
2023/10/02 00:23:59;;;;;;;11.75;6.43;;;;;;;13.90;100.00;101277.97;693599;28;920;-60
2023/10/02 00:24:19;;;;;;;12.52;6.78;;;;;;;13.89;100.00;101292.88;691418;28;1664;-62
2023/10/02 00:24:41;;;;;;;14.07;7.13;;;;;;;13.90;100.00;101284.13;693387;28;1727;-60
2023/10/02 00:25:07;;;;;;;13.60;6.65;;;;;;;13.91;100.00;101280.59;692429;28;1020;-63
2023/10/02 00:25:28;;;;;;;12.02;6.57;;;;;;;13.89;100.00;101286.75;691417;28;4912;-62
2023/10/02 00:25:52;;;;;;;12.10;6.17;;;;;;;13.89;100.00;101282.38;693130;28;1036;-62
2023/10/02 00:26:12;;;;;;;12.52;6.60;;;;;;;13.90;100.00;101285.84;691623;28;1022;-63
2023/10/02 00:26:36;;;;;;;13.50;6.85;;;;;;;13.89;100.00;101292.03;691723;28;1525;-61
2023/10/02 00:26:57;;;;;;;12.45;6.25;;;;;;;13.89;100.00;101289.38;690075;28;866;-62
2023/10/02 00:27:21;;;;;;;12.13;6.13;;;;;;;13.88;100.00;101291.13;686135;28;2155;-62
2023/10/02 00:27:45;;;;;;;12.43;6.65;;;;;;;13.88;100.00;101282.38;687903;28;910;-61
2023/10/02 00:28:10;;;;;;;10.95;5.72;;;;;;;13.85;100.00;101283.28;687349;28;1584;-60
2023/10/02 00:28:33;;;;;;;13.48;6.50;;;;;;;13.85;100.00;101283.28;685137;28;5091;-61
2023/10/02 00:28:56;;;;;;;11.32;6.35;;;;;;;13.87;100.00;101288.53;685606;28;1308;-62
2023/10/02 00:29:17;;;;;;;11.65;6.20;;;;;;;13.89;100.00;101285.00;688552;28;2558;-62
2023/10/02 00:29:57;;;;;;;11.95;6.15;;;;;;;13.91;100.00;101280.59;689564;28;976;-61
2023/10/02 00:30:21;;;;;;;12.85;6.63;;;;;;;13.87;100.00;101288.53;688911;28;1959;-62
2023/10/02 00:30:42;;;;;;;10.88;5.93;;;;;;;13.87;100.00;101283.25;685934;28;917;-60
2023/10/02 00:31:05;;;;;;;11.57;6.15;;;;;;;13.88;100.00;101283.25;688436;28;972;-62
2023/10/02 00:31:36;;;;;;;12.57;6.10;;;;;;;13.87;100.00;101289.38;687238;28;4378;-61
2023/10/02 00:31:56;;;;;;;11.98;6.03;;;;;;;13.90;100.00;101284.13;689738;28;928;-62
2023/10/02 00:32:19;;;;;;;11.45;6.07;;;;;;;13.90;100.00;101289.38;687258;28;2711;-61
2023/10/02 00:32:42;;;;;;;11.80;6.00;;;;;;;13.90;100.00;101286.75;688445;28;983;-61
2023/10/02 00:33:05;;;;;;;12.88;6.25;;;;;;;13.89;100.00;101281.50;689745;28;1034;-62
2023/10/02 00:33:27;;;;;;;12.73;6.40;;;;;;;13.87;100.00;101288.53;685117;28;2274;-61
2023/10/02 00:33:50;;;;;;;11.13;6.30;;;;;;;13.84;100.00;101285.94;684352;28;1004;-62
2023/10/02 00:34:11;;;;;;;12.93;6.40;;;;;;;13.84;100.00;101286.78;684048;28;4403;-62
2023/10/02 00:34:31;;;;;;;11.83;6.20;;;;;;;13.84;100.00;101284.16;685384;28;1743;-61
2023/10/02 00:34:52;;;;;;;11.87;6.30;;;;;;;13.85;100.00;101285.03;686616;28;1379;-60
2023/10/02 00:35:14;;;;;;;12.30;6.13;;;;;;;13.85;100.00;101285.03;685907;28;936;-61
2023/10/02 00:35:50;;;;;;;14.73;6.22;;;;;;;13.85;100.00;101285.03;686576;28;1525;-61
2023/10/02 00:36:12;;;;;;;12.50;6.28;;;;;;;13.83;100.00;101287.69;690495;28;902;-62
2023/10/02 00:36:36;;;;;;;11.90;6.07;;;;;;;13.81;100.00;101284.19;685927;28;2402;-61
2023/10/02 00:37:08;;;;;;;12.77;6.50;;;;;;;13.80;100.00;101282.44;689785;28;1550;-62
2023/10/02 00:37:51;;;;;;;12.27;6.25;;;;;;;13.79;100.00;101286.84;688545;28;6224;-60
2023/10/02 00:38:11;;;;;;;12.98;6.55;;;;;;;13.81;100.00;101286.81;689658;28;1329;-61
2023/10/02 00:38:31;;;;;;;13.55;6.70;;;;;;;13.81;100.00;101284.19;684031;28;1554;-60
2023/10/02 00:38:52;;;;;;;12.53;6.40;;;;;;;13.81;100.00;101289.44;687357;28;840;-61
2023/10/02 00:39:25;;;;;;;12.40;5.95;;;;;;;13.81;100.00;101280.69;688015;28;872;-61
2023/10/02 00:39:47;;;;;;;13.50;6.22;;;;;;;13.82;100.00;101285.03;690292;28;1450;-61
2023/10/02 00:40:08;;;;;;;12.35;5.97;;;;;;;13.80;100.00;101282.44;689381;28;4669;-60
2023/10/02 00:40:30;;;;;;;11.18;5.78;;;;;;;13.80;100.00;101279.81;688588;28;2409;-61
2023/10/02 00:40:50;;;;;;;11.40;5.65;;;;;;;13.80;100.00;101287.69;690586;28;983;-61
2023/10/02 00:41:11;;;;;;;12.07;6.13;;;;;;;13.80;100.00;101285.06;689980;28;912;-60
2023/10/02 00:41:32;;;;;;;12.48;6.47;;;;;;;13.81;100.00;101278.06;689058;28;987;-62
2023/10/02 00:42:31;;;;;;;12.07;6.72;;;;;;;13.76;100.00;101278.97;687947;28;2912;-60
2023/10/02 00:43:00;;;;;;;13.03;6.60;;;;;;;13.76;100.00;101281.59;687032;28;806;-63
2023/10/02 00:43:35;;;;;;;14.02;6.70;;;;;;;13.78;100.00;101287.72;686350;28;4730;-62
2023/10/02 00:43:56;;;;;;;10.60;6.13;;;;;;;13.77;100.00;101280.69;683387;28;1107;-62
2023/10/02 00:44:16;;;;;;;11.53;6.53;;;;;;;13.78;100.00;101282.44;684415;28;833;-61
2023/10/02 00:44:52;;;;;;;12.40;6.65;;;;;;;13.78;100.00;101281.59;684110;28;2693;-61
2023/10/02 00:45:13;;;;;;;12.43;5.90;;;;;;;13.77;100.00;101280.69;685178;28;1267;-61
2023/10/02 00:45:38;;;;;;;12.10;6.17;;;;;;;13.78;100.00;101284.22;686029;28;973;-61
2023/10/02 00:45:59;;;;;;;12.95;6.20;;;;;;;13.76;100.00;101289.50;688818;28;953;-61
2023/10/02 00:46:23;;;;;;;11.13;5.70;;;;;;;13.75;100.00;101287.75;687472;28;4391;-60
2023/10/02 00:46:43;;;;;;;13.05;6.47;;;;;;;13.74;100.00;101282.50;685656;28;989;-61
2023/10/02 00:47:05;;;;;;;12.45;6.20;;;;;;;13.76;100.00;101283.34;688386;28;826;-63
2023/10/02 00:47:45;;;;;;;12.60;6.32;;;;;;;13.78;100.00;101285.09;684538;28;2314;-60
2023/10/02 00:48:45;;;;;;;12.50;6.35;;;;;;;13.81;100.00;101280.69;689662;28;1268;-62
2023/10/02 00:49:25;;;;;;;12.70;6.20;;;;;;;13.79;100.00;101289.47;687550;28;1223;-61
2023/10/02 00:50:06;;;;;;;12.82;6.35;;;;;;;13.79;100.00;101285.97;690013;28;5114;-62
2023/10/02 00:50:25;;;;;;;12.15;6.70;;;;;;;13.81;100.00;101285.97;688785;28;1981;-61
2023/10/02 00:50:49;;;;;;;12.77;6.63;;;;;;;13.80;100.00;101287.69;690212;28;876;-61
2023/10/02 00:51:11;;;;;;;11.70;6.00;;;;;;;13.78;100.00;101284.22;693086;28;888;-60
2023/10/02 00:51:33;;;;;;;12.15;6.38;;;;;;;13.77;100.00;101285.09;690556;28;1446;-60
2023/10/02 00:52:00;;;;;;;11.10;6.40;;;;;;;13.76;100.00;101288.59;691326;28;943;-61
2023/10/02 00:52:21;;;;;;;11.43;6.45;;;;;;;13.75;100.00;101285.13;687440;28;4347;-62
2023/10/02 00:52:55;;;;;;;12.73;6.53;;;;;;;13.72;100.00;101282.53;685513;28;1387;-60
2023/10/02 00:53:24;;;;;;;12.80;6.40;;;;;;;13.74;100.00;101290.38;686614;28;1191;-62
2023/10/02 00:53:50;;;;;;;10.70;6.13;;;;;;;13.73;100.00;101281.59;686327;28;1914;-60
2023/10/02 00:54:23;;;;;;;12.68;6.13;;;;;;;13.73;100.00;101286.00;688762;28;1303;-60
2023/10/02 00:54:44;;;;;;;12.02;6.30;;;;;;;13.74;100.00;101287.75;689539;28;1339;-61
2023/10/02 00:55:07;;;;;;;11.27;6.07;;;;;;;13.74;100.00;101288.63;686395;28;1373;-62
2023/10/02 00:55:33;;;;;;;12.85;6.30;;;;;;;13.75;100.00;101284.25;688519;28;4650;-60
2023/10/02 00:55:54;;;;;;;11.93;6.28;;;;;;;13.75;100.00;101287.75;689697;28;837;-62
2023/10/02 00:56:28;;;;;;;11.98;6.60;;;;;;;13.72;100.00;101290.41;687859;28;1426;-61
2023/10/02 00:56:51;;;;;;;12.27;6.40;;;;;;;13.73;100.00;101281.59;686861;28;1510;-61
2023/10/02 00:57:16;;;;;;;12.70;6.32;;;;;;;13.74;100.00;101288.63;687335;28;1984;-61
2023/10/02 00:57:39;;;;;;;11.55;5.97;;;;;;;13.73;100.00;101286.88;686611;28;1743;-61
2023/10/02 00:58:02;;;;;;;12.20;6.38;;;;;;;13.74;100.00;101282.50;687452;28;1245;-61
2023/10/02 00:58:24;;;;;;;13.10;6.30;;;;;;;13.72;100.00;101289.50;684241;28;4327;-61
2023/10/02 00:58:58;;;;;;;12.00;6.50;;;;;;;13.70;100.00;101281.63;686614;28;853;-61
2023/10/02 00:59:23;;;;;;;12.00;6.53;;;;;;;13.68;100.00;101279.91;687939;28;1767;-60
2023/10/02 00:59:45;;;;;;;11.68;6.10;;;;;;;13.72;100.00;101284.25;686257;28;2022;-61
2023/10/02 01:00:17;;;;;;;11.55;6.22;;;;;;;13.73;100.00;101286.88;686474;28;1252;-61
2023/10/02 01:00:42;;;;;;;11.90;6.20;;;;;;;13.73;100.00;101286.00;689042;28;1749;-61
2023/10/02 01:01:05;;;;;;;12.82;6.70;;;;;;;13.73;100.00;101286.00;689901;28;1256;-61
2023/10/02 01:01:25;;;;;;;11.93;6.15;;;;;;;13.71;100.00;101279.91;687951;28;4373;-61
2023/10/02 01:01:46;;;;;;;13.00;6.63;;;;;;;13.70;100.00;101280.78;690326;28;1445;-61
2023/10/02 01:02:07;;;;;;;11.75;6.25;;;;;;;13.69;100.00;101279.03;689955;28;956;-62
2023/10/02 01:02:28;;;;;;;11.93;6.00;;;;;;;13.71;100.00;101286.03;687788;28;2357;-60
2023/10/02 01:02:51;;;;;;;12.40;6.45;;;;;;;13.71;100.00;101287.78;687223;28;960;-61
2023/10/02 01:03:16;;;;;;;11.50;6.07;;;;;;;13.71;100.00;101285.16;687135;28;963;-62
2023/10/02 01:04:07;;;;;;;12.68;6.40;;;;;;;13.72;100.00;101279.00;687291;28;994;-62
2023/10/02 01:04:28;;;;;;;11.32;6.53;;;;;;;13.71;100.00;101282.53;689182;28;4572;-62
2023/10/02 01:04:49;;;;;;;12.25;6.18;;;;;;;13.70;100.00;101283.41;691981;28;892;-60
2023/10/02 01:05:14;;;;;;;11.77;6.07;;;;;;;13.69;100.00;101279.03;688604;28;1957;-61
2023/10/02 01:05:47;;;;;;;12.38;6.53;;;;;;;13.69;100.00;101289.53;687514;28;2393;-61
2023/10/02 01:06:11;;;;;;;11.43;5.88;;;;;;;13.67;100.00;101284.31;688928;28;983;-60
2023/10/02 01:06:35;;;;;;;12.10;6.00;;;;;;;13.66;100.00;101281.69;687026;28;2865;-61
2023/10/02 01:07:05;;;;;;;13.60;6.55;;;;;;;13.64;100.00;101286.97;687531;28;1205;-61
2023/10/02 01:07:25;;;;;;;13.23;6.40;;;;;;;13.63;100.00;101283.44;686420;28;4395;-62
2023/10/02 01:07:46;;;;;;;11.77;6.35;;;;;;;13.65;100.00;101282.56;691031;28;1597;-61
2023/10/02 01:08:24;;;;;;;11.63;6.00;;;;;;;13.66;100.00;101282.53;689490;28;1906;-60
2023/10/02 01:08:46;;;;;;;11.68;6.32;;;;;;;13.65;100.00;101278.16;691523;28;944;-61
2023/10/02 01:09:07;;;;;;;11.90;6.20;;;;;;;13.63;100.00;101279.94;693057;28;889;-62
2023/10/02 01:09:28;;;;;;;12.20;6.43;;;;;;;13.62;100.00;101272.94;690752;28;1934;-61
2023/10/02 01:10:30;;;;;;;11.97;6.17;;;;;;;13.70;100.00;101273.75;691027;28;4944;-60
2023/10/02 01:10:59;;;;;;;12.48;6.10;;;;;;;13.71;100.00;101288.66;693055;28;1370;-62
2023/10/02 01:11:20;;;;;;;11.57;5.97;;;;;;;13.71;100.00;101277.28;691937;28;1918;-63
2023/10/02 01:11:40;;;;;;;12.17;6.10;;;;;;;13.68;100.00;101278.16;692678;28;939;-61
2023/10/02 01:12:01;;;;;;;12.90;6.47;;;;;;;13.67;100.00;101272.94;692880;28;1433;-62
2023/10/02 01:12:38;;;;;;;12.55;6.03;;;;;;;13.66;100.00;101284.31;692359;28;1917;-61
2023/10/02 01:13:02;;;;;;;11.77;6.35;;;;;;;13.61;100.00;101281.72;692985;28;1026;-61
2023/10/02 01:13:30;;;;;;;11.63;6.32;;;;;;;13.57;100.00;101283.50;691534;28;4486;-60
2023/10/02 01:13:54;;;;;;;12.27;6.05;;;;;;;13.56;100.00;101281.75;692491;28;739;-60
2023/10/02 01:14:39;;;;;;;13.40;6.30;;;;;;;13.58;100.00;101277.38;690292;28;1219;-61
2023/10/02 01:15:06;;;;;;;11.13;6.20;;;;;;;13.57;100.00;101280.00;689310;28;1564;-60
2023/10/02 01:15:28;;;;;;;11.68;6.30;;;;;;;13.56;100.00;101280.88;688805;28;1728;-60
2023/10/02 01:15:49;;;;;;;11.95;6.05;;;;;;;13.56;100.00;101284.38;686953;28;841;-62
2023/10/02 01:16:13;;;;;;;12.55;6.65;;;;;;;13.57;100.00;101283.50;685745;28;5854;-61
2023/10/02 01:16:36;;;;;;;11.93;6.60;;;;;;;13.57;100.00;101286.13;683734;28;1873;-61
2023/10/02 01:16:56;;;;;;;12.50;6.13;;;;;;;13.56;100.00;101283.50;683621;28;1292;-61
2023/10/02 01:17:17;;;;;;;12.20;6.38;;;;;;;13.54;100.00;101286.16;682476;28;1461;-61
2023/10/02 01:17:45;;;;;;;11.60;6.10;;;;;;;13.51;100.00;101282.66;683739;28;1794;-60
2023/10/02 01:18:27;;;;;;;11.60;6.10;;;;;;;13.50;100.00;101283.53;687199;28;909;-61
2023/10/02 01:18:49;;;;;;;11.23;6.50;;;;;;;13.50;100.00;101284.44;692035;28;1483;-61
2023/10/02 01:19:11;;;;;;;12.30;6.55;;;;;;;13.50;100.00;101280.91;691108;28;4362;-60
2023/10/02 01:19:52;;;;;;;11.73;5.93;;;;;;;13.49;100.00;101284.44;689147;28;1996;-61
2023/10/02 01:20:56;;;;;;;12.45;6.43;;;;;;;13.47;100.00;101281.81;689608;28;972;-60
2023/10/02 01:21:20;;;;;;;10.93;6.22;;;;;;;13.49;100.00;101282.69;688005;28;866;-61
2023/10/02 01:21:42;;;;;;;10.75;5.65;;;;;;;13.49;100.00;101287.94;687730;28;1226;-60
2023/10/02 01:22:03;;;;;;;11.85;6.10;;;;;;;13.48;100.00;101283.56;685448;28;997;-61
2023/10/02 01:22:28;;;;;;;13.50;6.38;;;;;;;13.47;100.00;101289.69;684850;28;4329;-60
2023/10/02 01:22:55;;;;;;;11.50;6.13;;;;;;;13.48;100.00;101286.19;686969;28;1271;-60
2023/10/02 01:23:22;;;;;;;12.60;5.80;;;;;;;13.47;100.00;101284.44;689363;28;1199;-59
2023/10/02 01:24:08;;;;;;;11.50;6.05;;;;;;;13.48;100.00;101290.56;690304;28;1207;-60
2023/10/02 01:24:29;;;;;;;11.95;6.07;;;;;;;13.49;100.00;101281.81;687534;28;2367;-60
2023/10/02 01:25:02;;;;;;;11.30;5.60;;;;;;;13.48;100.00;101290.56;686025;28;1137;-61
2023/10/02 01:25:23;;;;;;;13.15;5.93;;;;;;;13.50;100.00;101288.78;683395;28;4522;-60
2023/10/02 01:25:49;;;;;;;12.65;5.97;;;;;;;13.49;100.00;101280.06;688753;28;900;-60
2023/10/02 01:26:10;;;;;;;11.13;6.00;;;;;;;13.48;100.00;101288.81;688528;28;889;-62
2023/10/02 01:26:34;;;;;;;11.82;6.25;;;;;;;13.45;100.00;101289.69;688060;28;2829;-60
2023/10/02 01:26:57;;;;;;;12.48;6.03;;;;;;;13.46;100.00;101287.97;688946;28;896;-61
2023/10/02 01:27:22;;;;;;;11.52;6.03;;;;;;;13.47;100.00;101283.56;688424;28;1446;-61
2023/10/02 01:27:47;;;;;;;12.70;6.80;;;;;;;13.47;100.00;101294.94;690889;28;1051;-60
2023/10/02 01:28:09;;;;;;;12.15;6.30;;;;;;;13.48;100.00;101291.44;690740;28;4625;-61
2023/10/02 01:28:51;;;;;;;13.45;6.88;;;;;;;13.47;100.00;101283.56;687544;28;1737;-61
2023/10/02 01:29:11;;;;;;;12.20;6.28;;;;;;;13.45;100.00;101291.47;687862;28;771;-61
2023/10/02 01:29:35;;;;;;;11.98;6.25;;;;;;;13.45;100.00;101288.84;683677;28;1751;-60
2023/10/02 01:30:14;;;;;;;12.75;6.22;;;;;;;13.46;100.00;101287.97;685397;28;896;-61
2023/10/02 01:30:35;;;;;;;13.95;6.50;;;;;;;13.47;100.00;101291.44;687173;28;1739;-60
2023/10/02 01:30:56;;;;;;;13.50;6.97;;;;;;;13.49;100.00;101284.44;689363;28;1654;-60
2023/10/02 01:31:35;;;;;;;11.93;6.27;;;;;;;13.47;100.00;101281.81;688754;28;4439;-61
2023/10/02 01:31:58;;;;;;;12.50;6.50;;;;;;;13.45;100.00;101288.84;690196;28;920;-61
2023/10/02 01:32:18;;;;;;;10.15;6.05;;;;;;;13.44;100.00;101279.19;690384;28;1290;-60
2023/10/02 01:33:14;;;;;;;11.20;6.10;;;;;;;13.42;100.00;101287.09;688401;28;1782;-59
2023/10/02 01:33:34;;;;;;;12.27;6.32;;;;;;;13.41;100.00;101285.34;689055;28;1966;-61
2023/10/02 01:33:54;;;;;;;11.15;6.30;;;;;;;13.41;100.00;101287.09;689377;28;977;-62
2023/10/02 01:34:39;;;;;;;11.20;6.10;;;;;;;13.41;100.00;101284.47;689656;28;4411;-61
2023/10/02 01:34:55;;;;;;;12.25;6.20;;;;;;;13.40;100.00;101281.00;689592;28;1554;-60
2023/10/02 01:35:18;;;;;;;12.83;6.23;;;;;;;13.39;100.00;101281.00;689648;28;865;-60
2023/10/02 01:35:49;;;;;;;13.00;6.18;;;;;;;13.40;100.00;101282.72;686306;28;1490;-59
2023/10/02 01:36:09;;;;;;;11.10;5.97;;;;;;;13.41;100.00;101284.47;687477;28;931;-60
2023/10/02 01:36:31;;;;;;;11.75;6.28;;;;;;;13.39;100.00;101281.88;686791;28;1507;-60
2023/10/02 01:36:52;;;;;;;12.82;6.55;;;;;;;13.38;100.00;101284.50;686807;28;924;-60
2023/10/02 01:37:32;;;;;;;12.55;6.40;;;;;;;13.38;100.00;101287.13;687005;28;4608;-60
2023/10/02 01:37:55;;;;;;;12.02;6.43;;;;;;;13.38;100.00;101281.88;690129;28;972;-59
2023/10/02 01:38:24;;;;;;;13.00;6.60;;;;;;;13.39;100.00;101286.25;693226;28;849;-60
2023/10/02 01:38:46;;;;;;;12.52;6.40;;;;;;;13.40;100.00;101282.72;693190;28;853;-60
2023/10/02 01:39:14;;;;;;;11.65;6.13;;;;;;;13.41;100.00;101284.47;692886;28;1027;-62
2023/10/02 01:39:35;;;;;;;10.55;5.78;;;;;;;13.39;100.00;101281.00;691835;28;1795;-62
2023/10/02 01:40:28;;;;;;;10.48;5.68;;;;;;;13.37;100.00;101278.38;692516;28;876;-62
2023/10/02 01:40:49;;;;;;;12.98;6.20;;;;;;;13.37;100.00;101275.75;691338;28;4720;-59
2023/10/02 01:41:10;;;;;;;12.98;6.85;;;;;;;13.37;100.00;101280.13;687942;28;920;-62
2023/10/02 01:41:32;;;;;;;12.75;6.28;;;;;;;13.38;100.00;101281.88;685857;28;924;-62
2023/10/02 01:41:52;;;;;;;11.18;6.10;;;;;;;13.39;100.00;101284.50;687212;28;979;-62
2023/10/02 01:42:14;;;;;;;11.50;6.30;;;;;;;13.40;100.00;101285.34;687008;28;5279;-61
2023/10/02 01:42:35;;;;;;;12.05;6.15;;;;;;;13.38;100.00;101276.63;685051;28;2509;-59
2023/10/02 01:43:11;;;;;;;12.60;6.00;;;;;;;13.39;100.00;101286.25;688162;28;762;-60
2023/10/02 01:43:39;;;;;;;13.25;6.18;;;;;;;13.37;100.00;101280.13;691534;28;5186;-60
2023/10/02 01:44:00;;;;;;;12.13;6.15;;;;;;;13.34;100.00;101282.75;689895;28;940;-60
2023/10/02 01:44:22;;;;;;;12.13;6.47;;;;;;;13.33;100.00;101281.00;687082;28;2054;-60
2023/10/02 01:44:55;;;;;;;12.55;6.93;;;;;;;13.35;100.00;101284.50;687524;28;1304;-59
2023/10/02 01:45:15;;;;;;;12.05;6.18;;;;;;;13.36;100.00;101287.16;686434;28;937;-59
2023/10/02 01:45:35;;;;;;;11.32;6.30;;;;;;;13.36;100.00;101279.28;686011;28;2045;-60
2023/10/02 01:46:00;;;;;;;12.30;6.50;;;;;;;13.36;100.00;101276.66;689509;28;1272;-61
2023/10/02 01:46:22;;;;;;;12.32;6.15;;;;;;;13.35;100.00;101285.41;691913;28;4493;-61
2023/10/02 01:46:49;;;;;;;11.55;6.10;;;;;;;13.34;100.00;101281.00;693377;28;891;-60
2023/10/02 01:47:10;;;;;;;10.65;6.10;;;;;;;13.34;100.00;101288.00;692868;28;959;-62
2023/10/02 01:47:41;;;;;;;11.05;6.25;;;;;;;13.33;100.00;101283.63;691476;28;1798;-61
2023/10/02 01:48:02;;;;;;;12.55;6.75;;;;;;;13.36;100.00;101288.88;692891;28;1395;-60
2023/10/02 01:48:44;;;;;;;11.57;6.25;;;;;;;13.36;100.00;101283.63;686295;28;1731;-61
2023/10/02 01:49:24;;;;;;;12.07;6.30;;;;;;;13.34;100.00;101277.50;686118;28;2273;-61
2023/10/02 01:49:44;;;;;;;11.48;6.00;;;;;;;13.34;100.00;101288.00;684881;28;4916;-60
2023/10/02 01:50:05;;;;;;;11.87;6.07;;;;;;;13.33;100.00;101281.88;685319;28;869;-60
2023/10/02 01:50:25;;;;;;;12.13;6.13;;;;;;;13.31;100.00;101282.78;687981;28;1663;-61
2023/10/02 01:50:46;;;;;;;11.47;6.03;;;;;;;13.30;100.00;101287.13;687190;28;1200;-62
2023/10/02 01:51:20;;;;;;;12.88;6.35;;;;;;;13.28;100.00;101283.66;690074;28;1265;-60
2023/10/02 01:51:41;;;;;;;10.90;6.50;;;;;;;13.25;100.00;101279.31;685533;28;2045;-60
2023/10/02 01:52:02;;;;;;;12.10;6.60;;;;;;;13.26;100.00;101281.06;685750;28;968;-61
2023/10/02 01:52:25;;;;;;;12.43;6.83;;;;;;;13.27;100.00;101277.53;683898;28;4273;-60
2023/10/02 01:52:46;;;;;;;12.23;6.47;;;;;;;13.32;100.00;101282.78;689211;28;1297;-61
2023/10/02 01:53:06;;;;;;;11.10;6.00;;;;;;;13.32;100.00;101280.13;688867;28;880;-60
2023/10/02 01:53:30;;;;;;;11.38;6.05;;;;;;;13.33;100.00;101281.00;688072;28;1804;-60
2023/10/02 01:53:51;;;;;;;12.32;6.20;;;;;;;13.31;100.00;101282.78;692613;28;2132;-61
2023/10/02 01:54:19;;;;;;;11.85;6.00;;;;;;;13.31;100.00;101282.78;693005;28;867;-62
2023/10/02 01:54:40;;;;;;;12.40;6.18;;;;;;;13.31;100.00;101277.53;685139;28;1656;-60
2023/10/02 01:55:01;;;;;;;11.80;6.40;;;;;;;13.30;100.00;101281.88;687004;28;1402;-60
2023/10/02 01:55:29;;;;;;;11.43;6.17;;;;;;;13.28;100.00;101278.41;684824;28;4391;-60
2023/10/02 01:55:49;;;;;;;11.82;6.10;;;;;;;13.30;100.00;101276.63;681955;29;1241;-60
2023/10/02 01:56:11;;;;;;;10.32;6.18;;;;;;;13.28;100.00;101281.91;684421;28;1306;-62
2023/10/02 01:56:34;;;;;;;11.45;6.00;;;;;;;13.28;100.00;101279.28;682664;28;1717;-60
2023/10/02 01:56:56;;;;;;;11.18;5.97;;;;;;;13.29;100.00;101281.03;684403;28;913;-59
2023/10/02 01:57:24;;;;;;;11.05;6.50;;;;;;;13.25;100.00;101284.56;681769;29;874;-60
2023/10/02 01:57:47;;;;;;;12.80;6.30;;;;;;;13.24;100.00;101290.69;682676;28;1301;-62
2023/10/02 01:58:16;;;;;;;11.70;5.93;;;;;;;13.22;100.00;101279.31;686516;28;4281;-61
2023/10/02 01:58:41;;;;;;;12.55;6.00;;;;;;;13.21;100.00;101285.44;686423;28;1264;-60
2023/10/02 01:59:14;;;;;;;11.55;6.30;;;;;;;13.23;100.00;101278.41;686894;28;1430;-61
2023/10/02 01:59:34;;;;;;;13.25;6.70;;;;;;;13.25;100.00;101284.56;688207;28;1872;-61
2023/10/02 02:00:13;;;;;;;13.43;7.00;;;;;;;13.26;100.00;101278.44;687520;28;845;-60
2023/10/02 02:00:34;;;;;;;12.02;6.10;;;;;;;13.27;100.00;101276.66;688241;28;1771;-61
2023/10/02 02:00:57;;;;;;;11.75;6.18;;;;;;;13.26;100.00;101274.91;686092;28;901;-62
2023/10/02 02:01:20;;;;;;;11.35;6.50;;;;;;;13.26;100.00;101280.16;686354;28;4553;-61
2023/10/02 02:01:57;;;;;;;11.93;6.45;;;;;;;13.25;100.00;101278.41;689304;28;2099;-61
2023/10/02 02:02:19;;;;;;;11.80;6.13;;;;;;;13.25;100.00;101281.94;687883;28;1456;-61